Time;durP1;ratioP1;P1;durP2;ratioP2;P2;SDS_P1;SDS_P2;PMS_P1;PMS_P2;Temp;Humidity;BMP_temperature;BMP_pressure;BME280_temperature;BME280_humidity;BME280_pressure;Samples;Min_cycle;Max_cycle;Signal;HPM_P1;HPM_P2
2023/10/01 00:01:46;;;;;;;3.63;1.95;;;;;;;24.17;46.34;102384.03;5052502;28;20073;-64
2023/10/01 00:04:12;;;;;;;2.60;2.17;;;;;;;24.20;46.43;102357.88;5004357;28;21135;-65
2023/10/01 00:06:38;;;;;;;4.35;1.83;;;;;;;24.19;46.33;102347.41;5051290;28;20053;-64
2023/10/01 00:09:07;;;;;;;4.63;2.20;;;;;;;24.21;46.44;102350.72;5038059;28;20045;-64
2023/10/01 00:11:39;;;;;;;2.35;1.88;;;;;;;24.19;46.52;102355.41;5061139;28;20576;-64
2023/10/01 00:14:06;;;;;;;3.95;2.28;;;;;;;24.19;46.41;102366.88;5006577;28;20057;-66
2023/10/01 00:16:32;;;;;;;2.85;2.00;;;;;;;24.15;46.54;102368.22;5051400;28;20079;-66
2023/10/01 00:18:59;;;;;;;2.60;1.90;;;;;;;24.19;46.60;102374.03;5008145;28;20041;-64
2023/10/01 00:21:27;;;;;;;3.65;2.40;;;;;;;24.15;46.41;102375.38;5058751;28;20044;-64
2023/10/01 00:23:54;;;;;;;5.00;2.22;;;;;;;24.13;46.53;102367.56;4988756;28;20044;-65
2023/10/01 00:26:20;;;;;;;2.63;2.15;;;;;;;24.16;46.41;102380.53;5055573;28;20135;-65
2023/10/01 00:28:47;;;;;;;3.42;1.80;;;;;;;24.18;46.39;102383.03;4974714;28;20063;-65
2023/10/01 00:31:13;;;;;;;3.33;2.08;;;;;;;24.18;46.39;102385.69;5040360;28;20040;-65
2023/10/01 00:33:39;;;;;;;3.95;2.17;;;;;;;24.18;46.35;102375.88;5039435;28;20101;-65
2023/10/01 00:36:06;;;;;;;2.83;2.20;;;;;;;24.17;46.50;102368.06;4990891;28;20080;-65
2023/10/01 00:38:31;;;;;;;3.35;2.33;;;;;;;24.17;46.45;102366.22;5060276;28;20546;-64
2023/10/01 00:40:57;;;;;;;2.28;1.80;;;;;;;24.16;46.44;102348.59;4971021;28;20107;-65
2023/10/01 00:43:32;;;;;;;2.78;2.40;;;;;;;24.14;46.52;102339.97;5030543;28;20065;-65
2023/10/01 00:45:59;;;;;;;5.13;2.25;;;;;;;24.16;46.39;102353.09;4973372;28;20091;-66
2023/10/01 00:48:25;;;;;;;3.03;2.17;;;;;;;24.03;46.39;102342.97;5025765;28;20127;-67
2023/10/01 00:50:54;;;;;;;3.03;2.08;;;;;;;24.15;46.58;102359.41;4970344;28;20084;-67
2023/10/01 00:53:24;;;;;;;3.15;2.30;;;;;;;24.14;46.53;102355.94;5019661;28;20045;-67
2023/10/01 00:55:51;;;;;;;3.30;2.47;;;;;;;24.15;46.47;102368.22;5031071;28;21013;-67
2023/10/01 00:58:21;;;;;;;3.55;2.20;;;;;;;24.08;46.60;102344.16;4988840;28;20041;-66
2023/10/01 01:00:52;;;;;;;;;;;;;;;24.17;46.51;102344.94;5031975;28;20156;-67
2023/10/01 01:03:22;;;;;;;4.72;2.40;;;;;;;24.15;46.47;102340.78;4966642;28;19921;-64
2023/10/01 01:08:46;;;;;;;4.80;2.33;;;;;;;24.15;46.35;102349.59;5027077;28;20091;-66
2023/10/01 01:11:15;;;;;;;5.43;2.72;;;;;;;24.13;46.54;102345.44;5038005;28;20127;-68
2023/10/01 01:13:44;;;;;;;3.15;2.03;;;;;;;24.13;46.34;102340.13;5030713;28;20389;-67
2023/10/01 01:16:15;;;;;;;4.10;2.15;;;;;;;24.16;46.55;102342.44;4983798;28;20053;-65
2023/10/01 01:18:42;;;;;;;4.03;2.30;;;;;;;24.13;46.47;102330.31;5034011;28;20083;-65
2023/10/01 01:21:10;;;;;;;3.42;2.35;;;;;;;24.13;46.49;102327.66;4986254;28;20056;-67
2023/10/01 01:23:36;;;;;;;2.97;2.30;;;;;;;24.15;46.53;102330.97;5033012;28;20391;-67
2023/10/01 01:26:03;;;;;;;3.10;2.10;;;;;;;24.14;46.35;102315.19;4969451;28;20053;-65
2023/10/01 01:28:32;;;;;;;3.28;1.92;;;;;;;24.14;46.41;102312.50;5003484;28;20096;-65
2023/10/01 01:31:02;;;;;;;4.63;2.58;;;;;;;24.09;46.55;102310.38;5033765;28;20788;-65
2023/10/01 01:33:31;;;;;;;;;;;;;;;24.13;46.40;102306.38;4974233;28;20640;-66
2023/10/01 01:36:05;;;;;;;3.80;2.30;;;;;;;24.11;46.50;102313.69;5025998;28;19917;-66
2023/10/01 01:38:37;;;;;;;4.28;2.45;;;;;;;24.14;46.40;102316.00;4973949;28;20676;-67
2023/10/01 01:41:03;;;;;;;5.68;2.70;;;;;;;24.12;46.47;102315.34;5047302;28;20057;-67
2023/10/01 01:43:32;;;;;;;3.65;2.40;;;;;;;24.10;46.60;102318.19;4992033;28;20055;-67
2023/10/01 01:46:08;;;;;;;3.70;2.03;;;;;;;24.13;46.48;102316.19;5055082;28;20096;-67
2023/10/01 01:48:37;;;;;;;3.22;2.10;;;;;;;24.09;46.57;102313.88;5008137;28;20159;-67
2023/10/01 01:51:06;;;;;;;3.50;2.13;;;;;;;24.09;46.48;102297.06;5033523;28;20050;-67
2023/10/01 01:53:36;;;;;;;3.58;2.38;;;;;;;24.11;46.41;102300.38;5061215;28;20063;-67
2023/10/01 01:56:13;;;;;;;2.42;2.22;;;;;;;24.10;46.42;102304.06;5002333;28;21143;-68
2023/10/01 01:58:43;;;;;;;4.03;2.45;;;;;;;24.08;46.73;102290.91;5044005;28;20037;-67
2023/10/01 02:03:39;;;;;;;2.92;2.30;;;;;;;24.12;46.47;102307.38;5044567;28;20049;-67
2023/10/01 02:06:08;;;;;;;3.67;2.20;;;;;;;24.09;46.51;102305.06;4987980;28;20403;-67
2023/10/01 02:11:38;;;;;;;3.33;2.20;;;;;;;24.09;46.50;102307.72;5032394;28;20053;-66
2023/10/01 02:14:05;;;;;;;3.00;2.10;;;;;;;24.11;46.40;102309.19;5055979;28;20642;-66
2023/10/01 02:16:37;;;;;;;4.28;2.33;;;;;;;24.09;46.78;102307.72;4993182;28;20048;-68
2023/10/01 02:19:14;;;;;;;4.20;2.70;;;;;;;24.07;46.57;102305.22;5051038;28;20048;-67
2023/10/01 02:22:02;;;;;;;3.80;2.17;;;;;;;24.09;46.49;102295.25;5001068;28;20135;-66
2023/10/01 02:24:45;;;;;;;4.60;2.42;;;;;;;24.10;46.35;102294.22;5057658;28;20045;-66
2023/10/01 02:27:26;;;;;;;4.03;2.50;;;;;;;24.05;46.52;102290.41;4988222;28;20041;-66
2023/10/01 02:32:49;;;;;;;3.65;2.40;;;;;;;24.07;46.36;102289.25;5037096;28;20056;-69
2023/10/01 02:35:35;;;;;;;3.63;2.38;;;;;;;24.08;46.52;102279.44;4992105;28;20044;-68
2023/10/01 02:38:36;;;;;;;4.43;2.78;;;;;;;24.08;46.50;102282.94;5057741;28;20079;-68
2023/10/01 02:40:58;;;;;;;3.20;2.30;;;;;;;24.04;46.51;102280.78;4990691;28;20719;-69
2023/10/01 02:43:33;;;;;;;3.97;2.80;;;;;;;24.08;46.51;102287.44;5039425;28;20044;-69
2023/10/01 02:46:04;;;;;;;3.55;2.33;;;;;;;24.05;46.55;102290.41;4988214;28;20056;-69
2023/10/01 02:48:30;;;;;;;3.50;2.35;;;;;;;24.06;46.48;102289.44;5054050;28;20056;-69
2023/10/01 02:50:55;;;;;;;4.30;2.65;;;;;;;24.04;46.58;102278.94;5042977;28;20063;-69
2023/10/01 02:53:22;;;;;;;4.07;2.40;;;;;;;24.04;46.52;102281.59;5054406;28;20063;-68
2023/10/01 02:55:52;;;;;;;3.75;2.55;;;;;;;24.03;46.40;102277.28;5008346;28;20052;-67
2023/10/01 02:58:27;;;;;;;5.20;2.53;;;;;;;24.05;46.46;102266.47;5040457;28;20138;-67
2023/10/01 03:00:53;;;;;;;4.03;2.78;;;;;;;24.04;46.55;102262.16;5007361;28;20048;-68
2023/10/01 03:03:31;;;;;;;3.83;2.05;;;;;;;24.03;46.64;102269.31;5038771;28;20079;-69
2023/10/01 03:05:57;;;;;;;3.92;2.58;;;;;;;24.04;46.56;102265.63;5006990;28;20074;-68
2023/10/01 03:08:41;;;;;;;3.65;2.45;;;;;;;24.05;46.33;102263.81;5056328;28;20471;-68
2023/10/01 03:11:09;;;;;;;4.55;2.53;;;;;;;24.01;46.35;102263.31;4997566;28;20076;-66
2023/10/01 03:13:36;;;;;;;3.05;2.30;;;;;;;24.06;46.50;102268.16;5055144;28;20056;-66
2023/10/01 03:18:54;;;;;;;3.95;2.90;;;;;;;24.05;46.45;102253.97;5054978;28;20048;-69
2023/10/01 03:21:36;;;;;;;3.63;2.70;;;;;;;24.05;46.29;102255.81;5005312;28;20056;-67
2023/10/01 03:24:03;;;;;;;4.10;2.47;;;;;;;24.05;46.50;102256.66;5057712;28;20041;-67
2023/10/01 03:26:33;;;;;;;3.58;2.35;;;;;;;24.05;46.48;102253.97;5003697;28;20453;-68
2023/10/01 03:32:26;;;;;;;3.53;2.72;;;;;;;24.03;46.53;102260.50;4933780;28;20287;-66
2023/10/01 03:34:46;;;;;;;4.20;2.90;;;;;;;24.05;46.50;102253.97;5055335;28;20830;-66
2023/10/01 03:37:19;;;;;;;2.88;2.40;;;;;;;24.04;46.34;102257.66;5010562;28;20620;-66
2023/10/01 03:39:46;;;;;;;4.32;2.97;;;;;;;24.02;46.57;102251.69;5056675;28;20040;-67
2023/10/01 03:42:13;;;;;;;4.35;2.75;;;;;;;24.05;46.36;102243.34;4987888;28;23006;-65
2023/10/01 03:47:24;;;;;;;3.92;2.60;;;;;;;24.07;46.39;102243.19;4982755;28;20679;-69
2023/10/01 03:49:54;;;;;;;3.63;2.40;;;;;;;24.01;46.48;102238.53;5040210;28;20053;-69
2023/10/01 03:52:29;;;;;;;4.25;2.88;;;;;;;24.03;46.55;102231.22;4986736;28;20077;-68
2023/10/01 03:57:24;;;;;;;3.63;2.67;;;;;;;24.02;46.39;102225.06;5037825;28;20052;-67
2023/10/01 03:59:57;;;;;;;3.75;2.38;;;;;;;24.01;46.32;102215.44;5023631;28;20385;-67
2023/10/01 04:02:46;;;;;;;5.38;3.63;;;;;;;24.03;46.49;102218.75;5031872;28;20057;-67
2023/10/01 04:05:21;;;;;;;3.42;2.50;;;;;;;24.04;46.41;102211.59;4995589;28;20880;-68
2023/10/01 04:07:50;;;;;;;4.18;2.42;;;;;;;24.02;46.46;102202.94;5047191;28;20061;-68
2023/10/01 04:10:28;;;;;;;3.65;2.47;;;;;;;24.06;46.46;102221.06;4993554;28;20818;-66
2023/10/01 04:12:55;;;;;;;4.90;2.80;;;;;;;24.03;46.44;102221.41;5048219;28;20446;-66
2023/10/01 04:15:30;;;;;;;4.22;2.67;;;;;;;24.05;46.31;102226.53;4986590;28;20999;-69
2023/10/01 04:18:18;;;;;;;3.83;2.60;;;;;;;24.04;46.23;102235.53;5031100;28;20138;-69
2023/10/01 04:20:49;;;;;;;4.68;2.67;;;;;;;24.04;46.45;102235.53;5040642;28;20086;-68
2023/10/01 04:23:40;;;;;;;4.32;2.90;;;;;;;24.01;46.62;102241.22;4994497;28;21680;-67
2023/10/01 04:26:08;;;;;;;3.95;2.65;;;;;;;24.05;46.36;102237.19;5036800;28;20591;-68
2023/10/01 04:28:35;;;;;;;4.15;2.67;;;;;;;24.02;46.39;102230.38;4991556;28;20048;-66
2023/10/01 04:31:06;;;;;;;4.47;2.75;;;;;;;24.01;46.51;102225.25;5045520;28;20169;-66
2023/10/01 04:33:32;;;;;;;2.78;2.42;;;;;;;24.03;46.46;102223.22;4966520;28;21991;-69
2023/10/01 04:36:01;;;;;;;5.60;2.90;;;;;;;24.03;46.35;102217.91;5029261;28;20076;-68
2023/10/01 04:38:32;;;;;;;3.78;2.92;;;;;;;24.03;46.38;102209.94;4988774;28;20099;-67
2023/10/01 04:41:03;;;;;;;3.65;2.70;;;;;;;24.02;46.34;102216.25;5042243;28;20044;-67
2023/10/01 04:43:42;;;;;;;3.75;2.40;;;;;;;24.02;46.43;102211.75;5052549;28;20414;-67
2023/10/01 04:46:10;;;;;;;3.55;2.83;;;;;;;24.01;46.34;102220.75;5055756;28;20040;-67
2023/10/01 04:48:39;;;;;;;5.40;2.97;;;;;;;24.02;46.33;102224.25;5059189;28;20052;-67
2023/10/01 04:51:07;;;;;;;3.30;2.47;;;;;;;24.02;46.43;102226.91;5051211;28;20064;-67
2023/10/01 04:53:34;;;;;;;4.97;2.72;;;;;;;24.00;46.49;102218.25;5053361;28;20052;-67
2023/10/01 04:56:05;;;;;;;3.30;2.67;;;;;;;24.03;46.44;102217.91;5056228;28;20624;-67
2023/10/01 04:58:36;;;;;;;3.40;2.50;;;;;;;24.01;46.38;102215.44;5048850;28;20056;-67
2023/10/01 05:01:05;;;;;;;4.10;2.42;;;;;;;23.97;46.44;102208.81;5050414;28;20056;-67
2023/10/01 05:03:39;;;;;;;3.35;2.40;;;;;;;24.00;46.46;102219.09;5051837;28;20083;-67
2023/10/01 05:06:18;;;;;;;3.65;2.50;;;;;;;23.99;46.35;102221.94;5055348;28;20041;-67
2023/10/01 05:08:43;;;;;;;6.57;3.15;;;;;;;23.98;46.55;102218.44;5055554;28;20132;-67
2023/10/01 05:11:13;;;;;;;3.47;2.67;;;;;;;23.98;46.44;102223.75;5053702;28;20517;-67
2023/10/01 05:13:43;;;;;;;3.72;2.67;;;;;;;23.98;46.56;102229.09;5057500;28;20037;-67
2023/10/01 05:16:12;;;;;;;3.47;2.45;;;;;;;23.98;46.45;102231.75;5060505;28;20052;-67
2023/10/01 05:18:39;;;;;;;3.45;2.67;;;;;;;23.96;46.50;102230.25;5058998;28;20122;-67
2023/10/01 05:21:12;;;;;;;3.30;2.50;;;;;;;23.96;46.45;102230.25;5057079;28;20045;-67
2023/10/01 05:23:41;;;;;;;4.13;2.55;;;;;;;23.91;46.51;102227.31;5056577;28;20521;-67
2023/10/01 05:26:10;;;;;;;4.13;2.58;;;;;;;23.85;46.86;102220.81;5054716;28;20067;-67
2023/10/01 05:28:41;;;;;;;4.13;2.87;;;;;;;23.89;46.65;102224.00;5060012;28;20563;-67
2023/10/01 05:31:08;;;;;;;4.03;2.53;;;;;;;23.88;46.48;102217.84;5056173;28;20459;-67
2023/10/01 05:33:37;;;;;;;3.78;2.65;;;;;;;23.85;46.71;102217.34;5059306;28;20048;-67
2023/10/01 05:36:06;;;;;;;3.80;2.47;;;;;;;23.91;46.70;102221.97;5056912;28;20059;-67
2023/10/01 05:38:34;;;;;;;5.20;2.60;;;;;;;23.90;46.58;102221.16;5057089;28;20052;-67
2023/10/01 05:41:04;;;;;;;2.92;2.30;;;;;;;23.85;46.77;102214.66;5053526;28;20118;-66
2023/10/01 05:43:37;;;;;;;5.35;2.80;;;;;;;23.88;46.63;102231.16;5055825;28;20048;-65
2023/10/01 05:46:09;;;;;;;4.63;2.78;;;;;;;23.88;46.55;102236.47;5057736;28;20049;-65
2023/10/01 05:48:37;;;;;;;3.50;2.60;;;;;;;23.85;46.66;102234.13;5053741;28;20091;-65
2023/10/01 05:51:06;;;;;;;4.03;2.65;;;;;;;23.93;46.55;102235.94;5052046;28;20383;-66
2023/10/01 05:53:32;;;;;;;4.50;2.67;;;;;;;23.90;46.64;102242.44;5061595;28;20059;-65
2023/10/01 05:56:10;;;;;;;4.38;2.78;;;;;;;23.90;46.82;102229.13;5043968;28;20118;-66
2023/10/01 05:58:36;;;;;;;3.72;2.75;;;;;;;23.90;46.53;102239.78;5060681;28;20390;-66
2023/10/01 06:01:13;;;;;;;3.20;2.35;;;;;;;23.88;46.51;102236.47;5059750;28;20048;-66
2023/10/01 06:03:49;;;;;;;3.15;2.35;;;;;;;23.91;46.56;102237.94;5038279;28;20120;-66
2023/10/01 06:06:25;;;;;;;3.60;2.80;;;;;;;23.91;46.69;102238.78;5056511;28;20072;-65
2023/10/01 06:09:09;;;;;;;3.45;2.85;;;;;;;23.89;46.64;102240.78;5055254;28;20063;-65
2023/10/01 06:12:00;;;;;;;4.53;2.90;;;;;;;23.92;46.72;102242.25;5050689;28;20854;-65
2023/10/01 06:14:41;;;;;;;3.85;2.70;;;;;;;23.90;46.71;102249.59;5057131;28;20052;-65
2023/10/01 06:17:10;;;;;;;4.47;2.95;;;;;;;23.89;46.56;102240.78;5059557;28;20049;-66
2023/10/01 06:19:38;;;;;;;4.22;3.05;;;;;;;23.89;46.34;102237.28;5050994;28;20044;-65
2023/10/01 06:22:13;;;;;;;3.40;2.55;;;;;;;23.92;46.55;102236.94;5058454;28;20057;-66
2023/10/01 06:24:40;;;;;;;3.15;2.45;;;;;;;23.94;46.62;102240.25;5052940;28;20049;-65
2023/10/01 06:27:06;;;;;;;3.33;2.45;;;;;;;23.92;46.55;102231.63;5056921;28;20056;-66
2023/10/01 06:29:33;;;;;;;3.60;2.25;;;;;;;23.94;46.37;102237.59;5054013;28;20051;-66
2023/10/01 06:32:01;;;;;;;4.72;2.40;;;;;;;23.89;46.64;102240.78;5053053;28;20054;-66
2023/10/01 06:34:31;;;;;;;3.33;2.50;;;;;;;23.93;46.59;102239.44;5055048;28;20045;-66
2023/10/01 06:37:01;;;;;;;3.55;2.60;;;;;;;23.95;46.67;102236.59;5055790;28;20056;-66
2023/10/01 06:39:30;;;;;;;4.85;2.80;;;;;;;23.94;46.58;102232.28;5052046;28;20052;-66
2023/10/01 06:42:18;;;;;;;3.63;2.80;;;;;;;23.94;46.52;102230.44;5057718;28;20048;-66
2023/10/01 06:44:48;;;;;;;4.00;2.95;;;;;;;23.94;46.46;102229.63;5054040;28;20490;-66
2023/10/01 06:47:14;;;;;;;4.22;2.95;;;;;;;23.93;46.59;102228.78;5052587;28;20102;-66
2023/10/01 06:52:29;;;;;;;3.22;2.72;;;;;;;23.92;46.55;102234.28;5053839;28;20048;-66
2023/10/01 06:54:59;;;;;;;4.57;2.83;;;;;;;23.93;46.56;102238.59;5056829;28;20549;-66
2023/10/01 06:57:27;;;;;;;5.07;2.70;;;;;;;23.93;46.56;102231.44;5055992;28;20098;-67
2023/10/01 06:59:56;;;;;;;3.35;2.40;;;;;;;23.96;46.37;102227.59;5051824;28;20469;-66
2023/10/01 07:02:26;;;;;;;4.15;2.63;;;;;;;23.97;46.42;102240.72;5053323;28;20110;-67
2023/10/01 07:04:59;;;;;;;3.65;2.70;;;;;;;23.98;46.33;102234.41;5056516;28;20467;-67
2023/10/01 07:07:28;;;;;;;4.20;2.78;;;;;;;23.98;46.34;102233.56;5054547;28;20048;-67
2023/10/01 07:10:00;;;;;;;3.95;2.58;;;;;;;23.97;46.42;102237.25;5054600;28;20044;-67
2023/10/01 07:12:26;;;;;;;4.88;2.80;;;;;;;23.93;46.42;102236.75;5057719;28;20461;-67
2023/10/01 07:14:52;;;;;;;5.32;2.88;;;;;;;23.97;46.38;102242.56;5056909;28;22277;-68
2023/10/01 07:17:23;;;;;;;3.63;2.50;;;;;;;23.95;46.47;102248.06;5054796;28;20044;-66
2023/10/01 07:19:59;;;;;;;4.43;2.92;;;;;;;23.93;46.48;102234.09;5050616;28;20044;-67
2023/10/01 07:22:38;;;;;;;4.13;2.78;;;;;;;23.99;46.42;102243.22;5055170;28;20126;-67
2023/10/01 07:25:04;;;;;;;3.20;2.45;;;;;;;23.98;46.40;102242.38;5053465;28;20072;-66
2023/10/01 07:27:30;;;;;;;4.10;2.75;;;;;;;23.96;46.40;102240.91;5052778;28;20052;-67
2023/10/01 07:29:57;;;;;;;5.25;2.53;;;;;;;23.96;46.53;102241.75;5051778;28;20052;-67
2023/10/01 07:32:24;;;;;;;3.67;2.70;;;;;;;23.96;46.35;102241.75;5053276;28;20079;-66
2023/10/01 07:34:55;;;;;;;4.22;2.53;;;;;;;23.97;46.43;102226.59;5053574;28;20455;-67
2023/10/01 07:37:25;;;;;;;3.88;2.65;;;;;;;23.99;46.44;102227.25;5048912;28;20083;-67
2023/10/01 07:39:56;;;;;;;4.97;2.65;;;;;;;23.98;46.49;102222.94;5038565;28;20052;-67
2023/10/01 07:42:23;;;;;;;5.72;2.92;;;;;;;23.98;46.45;102220.28;5051855;28;20084;-67
2023/10/01 07:44:49;;;;;;;3.25;2.60;;;;;;;23.92;46.56;102215.66;5052946;28;20048;-67
2023/10/01 07:47:34;;;;;;;4.03;3.10;;;;;;;23.96;46.73;102225.78;5056310;28;20057;-68
2023/10/01 07:50:12;;;;;;;6.20;3.20;;;;;;;23.97;46.35;102224.78;5050593;28;20041;-67
2023/10/01 07:52:41;;;;;;;4.78;2.67;;;;;;;23.99;46.43;102220.09;5053739;28;20567;-67
2023/10/01 07:58:22;;;;;;;4.03;2.92;;;;;;;23.98;46.49;102230.91;5055897;28;20591;-67
2023/10/01 08:00:44;;;;;;;5.28;3.08;;;;;;;23.95;46.48;102232.09;5055429;28;20450;-67
2023/10/01 08:05:48;;;;;;;5.28;2.80;;;;;;;24.00;46.40;102248.38;5050360;28;20111;-66
2023/10/01 08:08:37;;;;;;;4.18;2.38;;;;;;;23.97;46.31;102237.25;5055915;28;20044;-67
2023/10/01 08:11:55;;;;;;;4.47;2.80;;;;;;;23.99;46.44;102244.03;5053330;28;20045;-68
2023/10/01 08:13:57;;;;;;;3.95;2.70;;;;;;;23.98;46.45;102245.06;5051381;28;20124;-67
2023/10/01 08:16:24;;;;;;;4.25;2.63;;;;;;;24.00;46.44;102240.38;5053483;28;20105;-67
2023/10/01 08:18:57;;;;;;;4.75;2.67;;;;;;;24.00;46.45;102252.84;5053716;28;20048;-67
2023/10/01 08:21:36;;;;;;;4.10;2.78;;;;;;;24.00;46.55;102248.38;5048965;28;20498;-67
2023/10/01 08:24:09;;;;;;;4.88;2.75;;;;;;;23.93;46.46;102238.59;5056345;28;20097;-68
2023/10/01 08:26:44;;;;;;;5.65;2.75;;;;;;;23.93;46.34;102227.97;5050464;28;20097;-68
2023/10/01 08:29:14;;;;;;;4.75;3.00;;;;;;;23.91;46.64;102233.44;5051865;28;20045;-68
2023/10/01 08:34:24;;;;;;;4.00;2.70;;;;;;;23.92;46.53;102235.09;5044481;28;20114;-68
2023/10/01 08:36:55;;;;;;;4.68;2.53;;;;;;;23.86;46.71;102233.13;5057307;28;20189;-68
2023/10/01 08:39:34;;;;;;;4.85;2.83;;;;;;;23.88;46.66;102232.94;5047705;28;20510;-68
2023/10/01 08:42:12;;;;;;;3.03;2.40;;;;;;;23.87;46.74;102226.78;5052169;28;20059;-68
2023/10/01 08:44:54;;;;;;;5.22;2.80;;;;;;;23.89;46.77;102226.66;5053731;28;20470;-68
2023/10/01 08:47:27;;;;;;;3.40;2.53;;;;;;;23.83;46.84;102225.50;5058081;28;20048;-67
2023/10/01 08:49:55;;;;;;;3.95;2.60;;;;;;;23.87;46.77;102237.44;5055784;28;20051;-67
2023/10/01 08:52:26;;;;;;;4.32;2.60;;;;;;;23.89;46.67;102226.66;5056749;28;20032;-67
2023/10/01 08:54:55;;;;;;;5.60;3.10;;;;;;;23.87;46.68;102218.81;5057411;28;20056;-67
2023/10/01 08:57:36;;;;;;;3.83;2.95;;;;;;;23.84;46.77;102213.00;5040662;28;20064;-68
2023/10/01 09:00:19;;;;;;;4.20;3.10;;;;;;;23.90;46.62;102217.66;5057108;28;20080;-67
2023/10/01 09:02:53;;;;;;;3.80;2.42;;;;;;;23.95;46.45;102205.50;5054341;28;20086;-67
2023/10/01 09:05:26;;;;;;;6.05;2.75;;;;;;;23.97;46.47;102207.97;5034915;28;20139;-68
2023/10/01 09:10:50;;;;;;;3.83;2.45;;;;;;;23.97;46.64;102210.63;5057486;28;20102;-68
2023/10/01 09:13:21;;;;;;;4.15;2.55;;;;;;;23.97;46.56;102216.78;5052248;28;20562;-67
2023/10/01 09:15:56;;;;;;;4.40;2.55;;;;;;;23.97;46.57;102208.81;5060705;28;20142;-67
2023/10/01 09:18:25;;;;;;;3.67;2.40;;;;;;;24.00;46.34;102213.78;5051783;28;20056;-68
2023/10/01 09:21:20;;;;;;;;;;;;;;;24.00;46.66;102212.94;5056767;28;20414;-68
2023/10/01 09:23:56;;;;;;;5.05;2.58;;;;;;;24.01;46.70;102212.75;5054253;28;20000;-68
2023/10/01 09:26:39;;;;;;;3.65;2.35;;;;;;;24.01;46.63;102212.75;5039504;28;20056;-68
2023/10/01 09:29:18;;;;;;;3.72;2.30;;;;;;;23.95;46.69;102189.53;5053728;28;20144;-68
2023/10/01 09:31:58;;;;;;;4.40;2.90;;;;;;;24.03;46.52;102205.44;5055134;28;20041;-68
2023/10/01 09:34:33;;;;;;;4.82;2.50;;;;;;;24.01;46.62;102204.78;5056497;28;20594;-68
2023/10/01 09:37:01;;;;;;;5.18;3.22;;;;;;;24.05;46.55;102200.75;5054843;28;20044;-68
2023/10/01 09:39:43;;;;;;;5.07;2.83;;;;;;;24.07;46.52;102212.09;5047492;28;20407;-68
2023/10/01 09:42:24;;;;;;;4.40;2.40;;;;;;;24.10;46.54;102206.41;5052257;28;20056;-68
2023/10/01 09:44:55;;;;;;;3.97;2.55;;;;;;;24.09;46.33;102217.25;5054717;28;20045;-67
2023/10/01 09:47:24;;;;;;;5.18;2.97;;;;;;;24.08;46.52;102216.41;5036328;28;20055;-68
2023/10/01 09:49:54;;;;;;;3.10;2.40;;;;;;;24.09;46.43;102222.56;5051770;28;20620;-68
2023/10/01 09:52:30;;;;;;;4.28;2.80;;;;;;;24.07;46.44;102212.09;5053761;28;20059;-68
2023/10/01 09:55:24;;;;;;;4.57;2.60;;;;;;;24.11;46.69;102215.22;5057120;28;20585;-68
2023/10/01 09:57:52;;;;;;;4.47;2.55;;;;;;;24.12;46.39;102200.91;5052442;28;20450;-68
2023/10/01 10:00:20;;;;;;;4.13;2.38;;;;;;;24.14;46.47;102214.03;5037784;28;20053;-68
2023/10/01 10:02:52;;;;;;;4.15;2.40;;;;;;;24.15;46.48;102216.53;5058287;28;20492;-67
2023/10/01 10:05:25;;;;;;;5.07;2.95;;;;;;;24.14;46.33;102209.56;5054770;28;20583;-67
2023/10/01 10:08:13;;;;;;;4.18;2.58;;;;;;;24.13;46.47;102221.19;5041259;28;20047;-68
2023/10/01 10:10:52;;;;;;;4.38;2.75;;;;;;;24.11;46.54;102205.41;5052790;28;20514;-68
2023/10/01 10:13:37;;;;;;;3.63;2.50;;;;;;;24.11;46.50;102207.25;5055813;28;22123;-68
2023/10/01 10:19:21;;;;;;;4.72;2.90;;;;;;;24.13;46.50;102207.88;5015804;28;20054;-68
2023/10/01 10:24:29;;;;;;;3.83;2.53;;;;;;;24.09;46.51;102210.09;5043838;28;20143;-69
2023/10/01 10:26:59;;;;;;;5.93;2.92;;;;;;;24.11;46.42;102205.41;5053998;28;20287;-68
2023/10/01 10:29:57;;;;;;;5.50;3.08;;;;;;;24.19;46.27;102209.84;5054865;28;20053;-68
2023/10/01 10:32:30;;;;;;;6.63;2.83;;;;;;;24.18;46.44;102208.19;5054693;28;20044;-68
2023/10/01 10:35:04;;;;;;;4.68;2.75;;;;;;;24.18;46.42;102208.19;5054320;28;20063;-68
2023/10/01 10:37:36;;;;;;;5.15;2.70;;;;;;;24.20;46.35;102202.69;5040935;28;20044;-68
2023/10/01 10:40:12;;;;;;;4.03;2.50;;;;;;;24.21;46.43;102215.00;5056618;28;20051;-68
2023/10/01 10:43:06;;;;;;;4.25;2.42;;;;;;;24.24;46.36;102214.66;5055282;28;20044;-68
2023/10/01 10:45:42;;;;;;;4.45;2.83;;;;;;;24.23;46.30;102212.97;5058577;28;20040;-68
2023/10/01 10:48:09;;;;;;;5.38;2.65;;;;;;;24.17;46.67;102214.50;5056118;28;20491;-68
2023/10/01 10:50:54;;;;;;;4.45;2.58;;;;;;;24.19;46.41;102215.16;5050060;28;20139;-68
2023/10/01 10:53:21;;;;;;;5.53;2.90;;;;;;;24.20;46.50;102214.16;5055741;28;20443;-68
2023/10/01 10:56:00;;;;;;;5.43;2.83;;;;;;;24.22;46.47;102213.97;5059134;28;20044;-67
2023/10/01 10:58:28;;;;;;;5.13;2.83;;;;;;;24.19;46.50;102214.34;5052386;28;20079;-66
2023/10/01 11:01:15;;;;;;;4.70;2.60;;;;;;;24.22;46.50;102213.97;5055020;28;20052;-67
2023/10/01 11:03:47;;;;;;;4.80;2.95;;;;;;;24.21;46.33;102207.84;5055379;28;20560;-67
2023/10/01 11:06:20;;;;;;;7.15;3.50;;;;;;;24.23;46.29;102205.00;5052499;28;20669;-67
2023/10/01 11:08:51;;;;;;;4.75;2.97;;;;;;;24.23;46.62;102202.31;5055338;28;20075;-66
2023/10/01 11:11:45;;;;;;;7.43;3.28;;;;;;;24.20;46.44;102198.19;5051272;28;20113;-67
2023/10/01 11:14:16;;;;;;;5.95;3.38;;;;;;;24.25;46.29;102195.03;5036040;28;20063;-67
2023/10/01 11:16:44;;;;;;;5.22;2.95;;;;;;;24.23;46.19;102205.81;5052949;28;20098;-67
2023/10/01 11:19:16;;;;;;;5.55;3.10;;;;;;;24.23;46.49;102192.50;5049808;28;20059;-67
2023/10/01 11:21:58;;;;;;;4.75;2.83;;;;;;;24.25;46.40;102195.03;5053604;28;20414;-67
2023/10/01 11:24:31;;;;;;;5.60;3.65;;;;;;;24.25;46.42;102195.03;5051040;28;20129;-67
2023/10/01 11:27:14;;;;;;;6.90;3.40;;;;;;;24.24;46.46;102204.84;5050873;28;20530;-66
2023/10/01 11:29:58;;;;;;;8.52;3.50;;;;;;;24.22;46.49;102200.66;5053227;28;20080;-67
2023/10/01 11:36:06;;;;;;;6.90;3.80;;;;;;;24.13;46.74;102199.91;5051363;28;20537;-67
2023/10/01 11:38:35;;;;;;;8.10;3.38;;;;;;;24.12;46.77;102198.25;5054938;28;20117;-67
2023/10/01 11:41:12;;;;;;;6.47;3.50;;;;;;;24.10;46.96;102202.94;5050764;28;20052;-67
2023/10/01 11:43:59;;;;;;;7.70;3.53;;;;;;;24.07;46.93;102195.28;5053675;28;20131;-67
2023/10/01 11:46:34;;;;;;;6.82;3.47;;;;;;;24.09;46.85;102193.28;5051837;28;20041;-67
2023/10/01 11:49:06;;;;;;;5.65;3.10;;;;;;;24.10;46.87;102189.63;5053116;28;20491;-67
2023/10/01 11:51:54;;;;;;;7.43;3.33;;;;;;;24.05;47.07;102199.94;5054644;28;20055;-67
2023/10/01 11:54:45;;;;;;;7.40;3.33;;;;;;;24.05;47.03;102189.28;5054091;28;20171;-67
2023/10/01 11:57:23;;;;;;;5.30;3.20;;;;;;;24.11;46.92;102192.09;5050973;28;20579;-66
2023/10/01 12:00:09;;;;;;;8.50;3.78;;;;;;;24.13;46.78;102183.94;5052231;28;20673;-66
2023/10/01 12:02:43;;;;;;;7.07;3.50;;;;;;;24.14;46.86;102180.28;5055169;28;20040;-67
2023/10/01 12:05:13;;;;;;;8.18;3.85;;;;;;;24.14;46.79;102184.78;5037546;28;20091;-66
2023/10/01 12:07:44;;;;;;;6.95;3.35;;;;;;;24.15;46.66;102175.78;5038589;28;20037;-66
2023/10/01 12:12:56;;;;;;;8.10;3.55;;;;;;;24.18;46.75;102167.44;5053075;28;20068;-67
2023/10/01 12:15:34;;;;;;;6.32;3.28;;;;;;;24.20;46.76;102170.75;5058829;28;20053;-67
2023/10/01 12:18:44;;;;;;;6.90;3.65;;;;;;;24.17;46.80;102168.44;5048102;28;20136;-67
2023/10/01 12:20:56;;;;;;;8.43;3.83;;;;;;;24.18;46.87;102178.09;5052261;28;20060;-66
2023/10/01 12:23:22;;;;;;;6.68;3.15;;;;;;;24.15;46.91;102173.13;5055703;28;20143;-67
2023/10/01 12:28:23;;;;;;;7.53;3.38;;;;;;;24.09;47.00;102172.81;5050578;28;20992;-66
2023/10/01 12:30:58;;;;;;;9.38;4.32;;;;;;;24.08;46.95;102168.50;5051722;28;20044;-67
2023/10/01 12:39:16;;;;;;;6.25;3.10;;;;;;;24.08;47.02;102157.88;5051519;28;20068;-66
2023/10/01 12:44:28;;;;;;;6.47;3.17;;;;;;;24.05;46.96;102152.88;5049876;28;20670;-67
2023/10/01 12:47:01;;;;;;;6.85;3.65;;;;;;;24.10;47.04;102147.88;5052632;28;20044;-66
2023/10/01 12:49:34;;;;;;;7.13;3.63;;;;;;;24.11;47.06;102149.53;5050085;28;20057;-67
2023/10/01 12:52:00;;;;;;;8.68;3.80;;;;;;;24.12;46.97;102166.31;5051876;28;20219;-67